Time;durP1;ratioP1;P1;durP2;ratioP2;P2;SDS_P1;SDS_P2;PMS_P1;PMS_P2;Temp;Humidity;BMP_temperature;BMP_pressure;BME280_temperature;BME280_humidity;BME280_pressure;Samples;Min_cycle;Max_cycle;Signal;HPM_P1;HPM_P2
2022/07/30 00:00:33;;;;;;;;;;;;;;;18.74;100.00;100729.38;3050788;19;921;-48
2022/07/30 00:01:35;;;;;;;;;;;;;;;18.79;100.00;100727.09;3055576;19;1231;-47
2022/07/30 00:02:40;;;;;;;;;;;;;;;18.78;100.00;100733.50;3055902;19;919;-45
2022/07/30 00:03:42;;;;;;;;;;;;;;;18.80;100.00;100730.66;3055771;19;1008;-47
2022/07/30 00:04:47;;;;;;;;;;;;;;;18.81;100.00;100730.53;3055865;19;1032;-46
2022/07/30 00:05:49;;;;;;;;;;;;;;;18.79;100.00;100732.50;3055556;19;1465;-50
2022/07/30 00:06:53;;;;;;;;;;;;;;;18.81;100.00;100735.06;3055672;19;961;-46
2022/07/30 00:07:55;;;;;;;;;;;;;;;18.81;100.00;100730.53;3055779;19;1268;-49
2022/07/30 00:09:00;;;;;;;;;;;;;;;18.82;100.00;100724.13;3055929;19;885;-51
2022/07/30 00:10:03;;;;;;;;;;;;;;;18.81;100.00;100725.13;3055579;19;949;-46
2022/07/30 00:11:08;;;;;;;;;;;;;;;18.82;100.00;100726.81;3055821;19;960;-46
2022/07/30 00:12:09;;;;;;;;;;;;;;;18.82;100.00;100725.97;3055396;19;1004;-45
2022/07/30 00:13:14;;;;;;;;;;;;;;;18.80;100.00;100723.41;3055879;19;1106;-50
2022/07/30 00:14:16;;;;;;;;;;;;;;;18.76;100.00;100716.56;3055726;19;1027;-46
2022/07/30 00:15:20;;;;;;;;;;;;;;;18.78;100.00;100719.97;3054590;19;913;-45
2022/07/30 00:16:22;;;;;;;;;;;;;;;18.76;100.00;100721.97;3047848;19;1216;-45
2022/07/30 00:17:27;;;;;;;;;;;;;;;18.73;100.00;100719.53;3046938;19;1008;-48
2022/07/30 00:18:28;;;;;;;;;;;;;;;18.69;100.00;100726.25;3046920;19;1048;-51
2022/07/30 00:19:33;;;;;;;;;;;;;;;18.67;100.00;100717.41;3048616;19;884;-48
2022/07/30 00:20:39;;;;;;;;;;;;;;;18.62;100.00;100708.88;3049762;19;925;-43
2022/07/30 00:21:46;;;;;;;;;;;;;;;18.62;100.00;100714.28;3050093;19;1020;-51
2022/07/30 00:22:48;;;;;;;;;;;;;;;18.64;100.00;100712.28;3049279;19;849;-51
2022/07/30 00:23:53;;;;;;;;;;;;;;;18.60;100.00;100721.66;3054479;19;1861;-48
2022/07/30 00:25:02;;;;;;;;;;;;;;;18.62;100.00;100707.00;3055284;19;1048;-46
2022/07/30 00:26:07;;;;;;;;;;;;;;;18.63;100.00;100702.47;3055653;19;972;-48
2022/07/30 00:27:09;;;;;;;;;;;;;;;18.60;100.00;100708.13;3055834;19;961;-45
2022/07/30 00:28:16;;;;;;;;;;;;;;;18.63;100.00;100707.88;3054622;19;979;-46
2022/07/30 00:29:18;;;;;;;;;;;;;;;18.58;100.00;100699.34;3055049;19;1052;-48
2022/07/30 00:30:23;;;;;;;;;;;;;;;18.57;100.00;100697.59;3055039;19;994;-46
2022/07/30 00:31:25;;;;;;;;;;;;;;;18.57;100.00;100697.59;3055080;19;1039;-49
2022/07/30 00:32:29;;;;;;;;;;;;;;;18.63;100.00;100694.34;3055449;19;1654;-49
2022/07/30 00:33:31;;;;;;;;;;;;;;;18.61;100.00;100690.94;3055828;19;959;-46
2022/07/30 00:34:36;;;;;;;;;;;;;;;18.54;100.00;100684.34;3053983;19;1711;-48
2022/07/30 00:35:38;;;;;;;;;;;;;;;18.47;100.00;100683.22;3054124;19;1245;-49
2022/07/30 00:36:43;;;;;;;;;;;;;;;18.54;100.00;100684.34;3054820;19;1086;-45
2022/07/30 00:37:45;;;;;;;;;;;;;;;18.50;100.00;100688.31;3055301;19;920;-48
2022/07/30 00:38:49;;;;;;;;;;;;;;;18.42;100.00;100686.34;3049287;19;947;-50
2022/07/30 00:39:51;;;;;;;;;;;;;;;18.33;100.00;100681.78;3046782;19;905;-46
2022/07/30 00:40:57;;;;;;;;;;;;;;;18.18;100.00;100680.47;3046744;19;1004;-47
2022/07/30 00:41:59;;;;;;;;;;;;;;;17.97;100.00;100667.03;3048208;19;1406;-43
2022/07/30 00:43:04;;;;;;;;;;;;;;;17.76;100.00;100660.84;3048934;19;1151;-49
2022/07/30 00:44:05;;;;;;;;;;;;;;;17.33;100.00;100658.34;3048788;19;1851;-50
2022/07/30 00:45:11;;;;;;;;;;;;;;;16.99;100.00;100649.63;3049464;19;1378;-46
2022/07/30 00:46:13;;;;;;;;;;;;;;;16.77;100.00;100646.06;3053524;19;976;-47
2022/07/30 00:47:18;;;;;;;;;;;;;;;16.80;100.00;100639.53;3055526;19;1812;-42
2022/07/30 00:48:20;;;;;;;;;;;;;;;16.68;100.00;100636.03;3055334;19;1178;-48
2022/07/30 00:49:24;;;;;;;;;;;;;;;16.55;100.00;100633.50;3055317;19;1398;-48
2022/07/30 00:50:27;;;;;;;;;;;;;;;16.39;100.00;100626.84;3055308;19;1239;-50
2022/07/30 00:51:31;;;;;;;;;;;;;;;16.21;100.00;100622.00;3054095;19;984;-45
2022/07/30 00:52:37;;;;;;;;;;;;;;;16.06;100.00;100612.47;3054212;19;1461;-47
2022/07/30 00:53:39;;;;;;;;;;;;;;;15.96;100.00;100606.16;3054620;19;1036;-45
2022/07/30 00:54:43;;;;;;;;;;;;;;;15.82;100.00;100587.59;3054825;19;1659;-49
2022/07/30 00:55:46;;;;;;;;;;;;;;;15.78;100.00;100587.00;3054322;19;1119;-45
2022/07/30 00:56:50;;;;;;;;;;;;;;;15.78;100.00;100578.06;3055698;19;963;-48
2022/07/30 00:57:52;;;;;;;;;;;;;;;15.76;100.00;100580.88;3054784;19;1007;-50
2022/07/30 00:58:57;;;;;;;;;;;;;;;15.73;100.00;100573.06;3054030;19;980;-43
2022/07/30 00:59:59;;;;;;;;;;;;;;;15.75;100.00;100583.69;3054465;19;946;-48
2022/07/30 01:01:03;;;;;;;;;;;;;;;15.75;100.00;100570.25;3051770;19;941;-48
2022/07/30 01:02:05;;;;;;;;;;;;;;;15.73;100.00;100577.56;3046577;19;1032;-44
2022/07/30 01:03:10;;;;;;;;;;;;;;;15.72;100.00;100589.31;3045819;19;885;-47
2022/07/30 01:04:12;;;;;;;;;;;;;;;15.72;100.00;100586.63;3046216;19;1838;-45
2022/07/30 01:05:16;;;;;;;;;;;;;;;15.70;100.00;100580.50;3047834;19;1136;-48
2022/07/30 01:06:18;;;;;;;;;;;;;;;15.70;100.00;100584.06;3049361;19;884;-52
2022/07/30 01:07:22;;;;;;;;;;;;;;;15.72;100.00;100586.63;3049292;19;981;-45
2022/07/30 01:08:28;;;;;;;;;;;;;;;15.72;100.00;100579.41;3051003;19;1009;-44
2022/07/30 01:09:32;;;;;;;;;;;;;;;15.71;100.00;100574.16;3055002;19;1031;-47
2022/07/30 01:10:36;;;;;;;;;;;;;;;15.72;100.00;100582.09;3055355;19;1234;-49
2022/07/30 01:11:40;;;;;;;;;;;;;;;15.72;100.00;100583.94;3054917;19;1010;-43
2022/07/30 01:12:44;;;;;;;;;;;;;;;15.71;100.00;100574.16;3053557;19;1013;-48
2022/07/30 01:13:46;;;;;;;;;;;;;;;15.73;100.00;100577.56;3053980;19;972;-48
2022/07/30 01:14:51;;;;;;;;;;;;;;;15.77;100.00;100568.28;3053727;19;1041;-43
2022/07/30 01:15:53;;;;;;;;;;;;;;;15.85;100.00;100573.88;3054320;19;1015;-46
2022/07/30 01:16:57;;;;;;;;;;;;;;;15.92;100.00;100574.25;3054575;19;1096;-47
2022/07/30 01:18:02;;;;;;;;;;;;;;;16.01;100.00;100576.19;3053255;19;1324;-49
2022/07/30 01:20:35;;;;;;;;;;;;;;;16.22;100.00;100579.75;3053346;19;1103;-47
2022/07/30 01:21:38;;;;;;;;;;;;;;;16.32;100.00;100574.47;3054333;19;992;-48
2022/07/30 01:22:47;;;;;;;;;;;;;;;16.35;100.00;100585.84;3053477;19;983;-48
2022/07/30 01:23:49;;;;;;;;;;;;;;;16.41;100.00;100585.34;3048651;19;1173;-50
2022/07/30 01:25:06;;;;;;;;;;;;;;;16.53;100.00;100592.38;3045289;19;1657;-50
2022/07/30 01:26:09;;;;;;;;;;;;;;;16.62;100.00;100597.97;3045424;19;964;-46
2022/07/30 01:27:13;;;;;;;;;;;;;;;16.73;100.00;100595.25;3046798;19;1031;-48
2022/07/30 01:28:24;;;;;;;;;;;;;;;16.77;100.00;100589.47;3048655;19;1461;-46
2022/07/30 01:29:26;;;;;;;;;;;;;;;16.86;100.00;100598.59;3048184;19;972;-50
2022/07/30 01:30:31;;;;;;;;;;;;;;;16.88;100.00;100605.56;3047288;19;957;-50
2022/07/30 01:31:36;;;;;;;;;;;;;;;16.97;100.00;100603.06;3053198;19;1377;-48
2022/07/30 01:32:41;;;;;;;;;;;;;;;17.01;100.00;100601.81;3053730;19;1621;-48
2022/07/30 01:33:44;;;;;;;;;;;;;;;17.08;100.00;100594.88;3053845;19;1028;-47
2022/07/30 01:34:49;;;;;;;;;;;;;;;17.11;100.00;100603.56;3053522;19;981;-47
2022/07/30 01:35:51;;;;;;;;;;;;;;;17.14;100.00;100594.38;3053931;19;1032;-48
2022/07/30 01:36:55;;;;;;;;;;;;;;;17.18;100.00;100601.19;3053565;19;979;-48
2022/07/30 01:37:59;;;;;;;;;;;;;;;17.21;100.00;100601.78;3053477;19;1089;-49
2022/07/30 01:39:03;;;;;;;;;;;;;;;17.20;100.00;100593.81;3052912;19;1027;-45
2022/07/30 01:40:06;;;;;;;;;;;;;;;17.26;100.00;100587.91;3053880;19;913;-48
2022/07/30 01:41:10;;;;;;;;;;;;;;;17.32;100.00;100586.50;3052851;19;1696;-46
2022/07/30 01:42:12;;;;;;;;;;;;;;;17.34;100.00;100588.06;3053265;19;933;-48
2022/07/30 01:43:17;;;;;;;;;;;;;;;17.33;100.00;100582.81;3054001;19;889;-44
2022/07/30 01:44:19;;;;;;;;;;;;;;;17.33;100.00;100577.41;3053357;19;1846;-45
2022/07/30 01:45:27;;;;;;;;;;;;;;;17.37;100.00;100574.31;3053355;19;916;-46
2022/07/30 01:46:29;;;;;;;;;;;;;;;17.40;100.00;100582.13;3047608;19;961;-46
2022/07/30 01:47:34;;;;;;;;;;;;;;;17.43;100.00;100579.16;3044167;19;1131;-45
2022/07/30 01:48:39;;;;;;;;;;;;;;;17.45;100.00;100581.72;3044594;19;942;-48
2022/07/30 01:49:47;;;;;;;;;;;;;;;17.50;100.00;100579.47;3046302;19;966;-43
2022/07/30 01:50:50;;;;;;;;;;;;;;;17.52;100.00;100582.88;3047945;19;943;-47
2022/07/30 01:51:54;;;;;;;;;;;;;;;17.48;100.00;100582.31;3048112;19;951;-49
2022/07/30 01:52:56;;;;;;;;;;;;;;;17.47;100.00;100582.44;3047817;19;977;-43
2022/07/30 01:54:02;;;;;;;;;;;;;;;17.49;100.00;100578.63;3052210;19;998;-46
2022/07/30 01:55:04;;;;;;;;;;;;;;;17.49;100.00;100572.38;3053287;19;957;-43
2022/07/30 01:56:20;;;;;;;;;;;;;;;17.53;100.00;100571.94;3053128;19;865;-43
2022/07/30 01:57:26;;;;;;;;;;;;;;;17.54;100.00;100573.66;3053352;19;992;-46
2022/07/30 01:58:31;;;;;;;;;;;;;;;17.56;100.00;100573.53;3052998;19;939;-45
2022/07/30 01:59:44;;;;;;;;;;;;;;;17.56;100.00;100570.81;3053479;19;969;-51
2022/07/30 02:00:47;;;;;;;;;;;;;;;17.59;100.00;100573.25;3053456;19;783;-45
2022/07/30 02:01:51;;;;;;;;;;;;;;;17.60;100.00;100573.13;3053259;19;968;-47
2022/07/30 02:02:56;;;;;;;;;;;;;;;17.57;100.00;100584.19;3053187;19;950;-42
2022/07/30 02:03:58;;;;;;;;;;;;;;;17.58;100.00;100577.81;3053287;19;850;-43
2022/07/30 02:05:03;;;;;;;;;;;;;;;17.57;100.00;100580.63;3053141;19;1846;-46
2022/07/30 02:06:21;;;;;;;;;;;;;;;17.49;100.00;100578.63;3053102;19;988;-45
2022/07/30 02:07:29;;;;;;;;;;;;;;;17.58;100.00;100572.41;3053349;19;869;-49
2022/07/30 02:08:41;;;;;;;;;;;;;;;17.59;100.00;100575.97;3050784;19;1281;-44
2022/07/30 02:10:06;;;;;;;;;;;;;;;17.61;100.00;100582.06;3045126;19;907;-47
2022/07/30 02:12:27;;;;;;;;;;;;;;;17.59;100.00;100579.50;3044374;19;1087;-47
2022/07/30 02:12:48;;;;;;;;;;;;;;;17.59;100.00;100584.91;3047054;19;1467;-50
2022/07/30 02:13:53;;;;;;;;;;;;;;;17.63;100.00;100574.69;3047701;19;984;-49
2022/07/30 02:15:00;;;;;;;;;;;;;;;17.63;100.00;100580.94;3047252;19;1324;-43
2022/07/30 02:16:05;;;;;;;;;;;;;;;17.66;100.00;100571.75;3049756;19;1036;-45
2022/07/30 02:17:10;;;;;;;;;;;;;;;17.67;100.00;100586.09;3053220;19;1622;-46
2022/07/30 02:18:23;;;;;;;;;;;;;;;17.69;100.00;100568.78;3052881;19;945;-46
2022/07/30 02:19:35;;;;;;;;;;;;;;;17.71;100.00;100582.97;3052780;19;937;-46
2022/07/30 02:20:45;;;;;;;;;;;;;;;17.72;100.00;100579.31;3052919;19;942;-45
2022/07/30 02:21:53;;;;;;;;;;;;;;;17.76;100.00;100574.44;3053095;19;952;-50
2022/07/30 02:22:59;;;;;;;;;;;;;;;17.78;100.00;100569.78;3052799;19;948;-49
2022/07/30 02:24:01;;;;;;;;;;;;;;;17.78;100.00;100575.19;3052488;19;949;-49
2022/07/30 02:25:06;;;;;;;;;;;;;;;17.80;100.00;100570.50;3052799;19;1865;-45
2022/07/30 02:26:08;;;;;;;;;;;;;;;17.78;100.00;100573.31;3053307;19;881;-45
2022/07/30 02:27:16;;;;;;;;;;;;;;;17.80;100.00;100570.50;3053091;19;1248;-48
2022/07/30 02:28:19;;;;;;;;;;;;;;;17.79;100.00;100564.25;3053006;19;1029;-47
2022/07/30 02:29:24;;;;;;;;;;;;;;;17.82;100.00;100569.38;3052553;19;904;-51
2022/07/30 02:30:30;;;;;;;;;;;;;;;17.85;100.00;100565.53;3052489;19;1150;-45
2022/07/30 02:31:34;;;;;;;;;;;;;;;17.86;100.00;100564.56;3046948;19;1078;-45
2022/07/30 02:32:39;;;;;;;;;;;;;;;17.86;100.00;100564.56;3044709;19;1443;-44
2022/07/30 02:33:41;;;;;;;;;;;;;;;17.84;100.00;100566.53;3043853;19;987;-47
2022/07/30 02:34:54;;;;;;;;;;;;;;;17.79;100.00;100552.59;3045879;19;920;-45
2022/07/30 02:35:56;;;;;;;;;;;;;;;17.90;100.00;100565.97;3046770;19;1248;-48
2022/07/30 02:37:00;;;;;;;;;;;;;;;17.88;100.00;100562.53;3047624;19;1627;-47
2022/07/30 02:38:03;;;;;;;;;;;;;;;17.85;100.00;100554.75;3046894;19;1195;-48
2022/07/30 02:39:08;;;;;;;;;;;;;;;17.82;100.00;100555.88;3051976;19;996;-48
2022/07/30 02:41:44;;;;;;;;;;;;;;;17.88;100.00;100538.25;3044558;19;1976;-46
2022/07/30 02:42:50;;;;;;;;;;;;;;;17.87;100.00;100550.06;3056939;19;967;-45
2022/07/30 02:44:01;;;;;;;;;;;;;;;17.83;100.00;100543.22;3056579;19;1100;-48
2022/07/30 02:45:03;;;;;;;;;;;;;;;17.84;100.00;100539.53;3056566;19;1842;-48
2022/07/30 02:46:09;;;;;;;;;;;;;;;17.82;100.00;100541.53;3055994;19;883;-47
2022/07/30 02:47:33;;;;;;;;;;;;;;;17.85;100.00;100535.84;3056237;19;1115;-48
2022/07/30 02:48:40;;;;;;;;;;;;;;;17.80;100.00;100530.00;3055532;19;908;-48
2022/07/30 02:49:42;;;;;;;;;;;;;;;17.76;100.00;100531.25;3055873;19;1102;-48
2022/07/30 02:50:47;;;;;;;;;;;;;;;17.78;100.00;100526.59;3055622;19;873;-47
2022/07/30 02:51:50;;;;;;;;;;;;;;;17.82;100.00;100531.56;3055248;19;1315;-48
2022/07/30 02:52:54;;;;;;;;;;;;;;;17.84;100.00;100534.13;3055218;19;873;-48
2022/07/30 02:53:56;;;;;;;;;;;;;;;17.85;100.00;100533.16;3055224;19;1031;-48
2022/07/30 02:55:02;;;;;;;;;;;;;;;17.83;100.00;100530.59;3055510;19;987;-48
2022/07/30 02:56:06;;;;;;;;;;;;;;;17.83;100.00;100527.03;3055362;19;1028;-45
2022/07/30 02:57:08;;;;;;;;;;;;;;;17.79;100.00;100522.91;3055391;19;904;-46
2022/07/30 02:58:13;;;;;;;;;;;;;;;17.86;100.00;100532.16;3055178;19;881;-45
2022/07/30 02:59:15;;;;;;;;;;;;;;;17.83;100.00;100530.59;3055028;19;1702;-48
2022/07/30 03:00:19;;;;;;;;;;;;;;;17.85;100.00;100530.44;3055226;19;2047;-48
2022/07/30 03:01:22;;;;;;;;;;;;;;;17.87;100.00;100523.06;3051635;19;1821;-48
2022/07/30 03:02:26;;;;;;;;;;;;;;;17.89;100.00;100524.59;3052833;19;992;-46
2022/07/30 03:03:32;;;;;;;;;;;;;;;17.88;100.00;100536.41;3052711;19;1075;-47
2022/07/30 03:04:37;;;;;;;;;;;;;;;17.87;100.00;100533.88;3052477;19;1170;-48
2022/07/30 03:05:39;;;;;;;;;;;;;;;17.89;100.00;100529.16;3051733;19;1846;-47
2022/07/30 03:06:43;;;;;;;;;;;;;;;17.92;100.00;100531.59;3052555;19;891;-48
2022/07/30 03:07:48;;;;;;;;;;;;;;;17.92;100.00;100531.59;3052358;19;904;-48
2022/07/30 03:08:49;;;;;;;;;;;;;;;17.96;100.00;100530.31;3049092;19;964;-47
2022/07/30 03:09:54;;;;;;;;;;;;;;;17.94;100.00;100530.44;3042955;19;1226;-48
2022/07/30 03:10:58;;;;;;;;;;;;;;;17.99;100.00;100527.34;3044123;19;1343;-47
2022/07/30 03:12:03;;;;;;;;;;;;;;;17.97;100.00;100529.31;3044405;19;1029;-47
2022/07/30 03:13:07;;;;;;;;;;;;;;;17.99;100.00;100532.75;3046650;19;1063;-47
2022/07/30 03:14:10;;;;;;;;;;;;;;;17.99;100.00;100530.88;3046999;19;1094;-45
2022/07/30 03:15:14;;;;;;;;;;;;;;;17.98;100.00;100531.03;3046100;19;1151;-45
2022/07/30 03:16:18;;;;;;;;;;;;;;;18.00;100.00;100529.03;3049519;19;1151;-47
2022/07/30 03:17:22;;;;;;;;;;;;;;;17.98;100.00;100533.75;3052028;19;1166;-46
2022/07/30 03:18:24;;;;;;;;;;;;;;;18.00;100.00;100529.03;3052215;19;1031;-47
2022/07/30 03:19:31;;;;;;;;;;;;;;;18.01;100.00;100533.44;3051893;19;984;-48
2022/07/30 03:20:34;;;;;;;;;;;;;;;18.05;100.00;100532.16;3052474;19;940;-45
2022/07/30 03:21:38;;;;;;;;;;;;;;;18.06;100.00;100533.88;3051819;19;1039;-45
2022/07/30 03:22:41;;;;;;;;;;;;;;;18.02;100.00;100535.13;3051772;19;1780;-46
2022/07/30 03:23:45;;;;;;;;;;;;;;;18.03;100.00;100527.91;3051893;19;1800;-46
2022/07/30 03:24:48;;;;;;;;;;;;;;;18.02;100.00;100531.59;3052273;19;904;-45
2022/07/30 03:25:56;;;;;;;;;;;;;;;18.02;100.00;100526.19;3051446;19;1841;-47
2022/07/30 03:26:59;;;;;;;;;;;;;;;18.01;100.00;100522.63;3052416;19;1019;-45
2022/07/30 03:28:05;;;;;;;;;;;;;;;18.03;100.00;100523.34;3052646;19;1004;-45
2022/07/30 03:29:07;;;;;;;;;;;;;;;18.02;100.00;100515.38;3054848;19;1177;-49
2022/07/30 03:30:14;;;;;;;;;;;;;;;18.03;100.00;100523.34;3055054;19;1062;-46
2022/07/30 03:31:16;;;;;;;;;;;;;;;17.93;100.00;100503.59;3052324;19;1024;-47
2022/07/30 03:32:21;;;;;;;;;;;;;;;18.02;100.00;100516.22;3046688;19;972;-48
2022/07/30 03:33:27;;;;;;;;;;;;;;;17.99;100.00;100516.53;3046199;19;1342;-46
2022/07/30 03:34:42;;;;;;;;;;;;;;;18.03;100.00;100512.53;3047952;19;929;-48
2022/07/30 03:35:48;;;;;;;;;;;;;;;18.02;100.00;100516.22;3049796;19;985;-45
2022/07/30 03:36:52;;;;;;;;;;;;;;;18.04;100.00;100514.25;3049067;19;1451;-49
2022/07/30 03:37:54;;;;;;;;;;;;;;;18.06;100.00;100517.66;3049184;19;1019;-47
2022/07/30 03:38:59;;;;;;;;;;;;;;;18.03;100.00;100509.00;3053007;19;1033;-46
2022/07/30 03:40:00;;;;;;;;;;;;;;;17.99;100.00;100516.53;3055601;19;1083;-47
2022/07/30 03:41:06;;;;;;;;;;;;;;;18.04;100.00;100519.66;3055114;19;998;-47
2022/07/30 03:42:08;;;;;;;;;;;;;;;18.05;100.00;100521.38;3055389;19;1037;-48
2022/07/30 03:43:14;;;;;;;;;;;;;;;18.02;100.00;100527.03;3054740;19;1899;-46
2022/07/30 03:44:33;;;;;;;;;;;;;;;18.11;100.00;100526.22;3055285;19;1206;-46
2022/07/30 03:45:40;;;;;;;;;;;;;;;18.12;100.00;100522.50;3054862;19;979;-48
2022/07/30 03:46:43;;;;;;;;;;;;;;;18.16;100.00;100518.53;3053860;19;1850;-48
2022/07/30 03:47:48;;;;;;;;;;;;;;;18.09;100.00;100517.41;3055068;19;928;-48
2022/07/30 03:48:50;;;;;;;;;;;;;;;18.16;100.00;100528.47;3055461;19;894;-44
2022/07/30 03:49:55;;;;;;;;;;;;;;;18.19;100.00;100531.75;3055185;19;1132;-46
2022/07/30 03:50:58;;;;;;;;;;;;;;;18.19;100.00;100534.44;3055101;19;1052;-47
2022/07/30 03:52:03;;;;;;;;;;;;;;;18.21;100.00;100537.88;3054789;19;899;-48
2022/07/30 03:53:06;;;;;;;;;;;;;;;18.17;100.00;100533.72;3055359;19;1189;-47
2022/07/30 03:54:19;;;;;;;;;;;;;;;18.22;100.00;100538.72;3048419;19;1153;-48
2022/07/30 03:55:37;;;;;;;;;;;;;;;18.20;100.00;100536.16;3046140;19;1421;-47
2022/07/30 03:57:05;;;;;;;;;;;;;;;18.24;100.00;100542.97;3045477;19;1496;-46
2022/07/30 03:58:15;;;;;;;;;;;;;;;18.23;100.00;100541.25;3049314;19;901;-46
2022/07/30 03:59:20;;;;;;;;;;;;;;;18.22;100.00;100539.56;3049055;19;967;-45
2022/07/30 04:00:22;;;;;;;;;;;;;;;18.21;100.00;100545.97;3049261;19;1236;-48
2022/07/30 04:01:28;;;;;;;;;;;;;;;18.27;100.00;100541.84;3053159;19;1178;-46
2022/07/30 04:02:48;;;;;;;;;;;;;;;18.25;100.00;100546.53;3054908;19;971;-49
2022/07/30 04:04:18;;;;;;;;;;;;;;;18.31;100.00;100537.84;3054835;19;1087;-46
2022/07/30 04:05:20;;;;;;;;;;;;;;;18.35;100.00;100540.13;3054701;19;996;-47
2022/07/30 04:06:26;;;;;;;;;;;;;;;18.38;100.00;100538.13;3054869;19;1856;-47
2022/07/30 04:07:28;;;;;;;;;;;;;;;18.42;100.00;100544.97;3054861;19;1052;-46
2022/07/30 04:08:32;;;;;;;;;;;;;;;18.46;100.00;100544.53;3054045;19;1054;-48
2022/07/30 04:09:37;;;;;;;;;;;;;;;18.53;100.00;100542.09;3054947;19;1181;-48
2022/07/30 04:10:58;;;;;;;;;;;;;;;18.60;100.00;100551.38;3054420;19;1221;-46
2022/07/30 04:12:21;;;;;;;;;;;;;;;18.65;100.00;100547.25;3055152;19;1083;-46
2022/07/30 04:13:23;;;;;;;;;;;;;;;18.72;100.00;100547.50;3055275;19;889;-49
2022/07/30 04:14:27;;;;;;;;;;;;;;;18.70;100.00;100544.97;3054170;19;1821;-48
2022/07/30 04:15:30;;;;;;;;;;;;;;;18.74;100.00;100550.91;3054687;19;1199;-48
2022/07/30 04:17:00;;;;;;;;;;;;;;;18.85;100.00;100547.19;3047427;19;909;-46
2022/07/30 04:18:02;;;;;;;;;;;;;;;18.89;100.00;100554.88;3045991;19;1065;-47
2022/07/30 04:19:08;;;;;;;;;;;;;;;18.92;100.00;100549.19;3046108;19;1203;-47
2022/07/30 04:20:16;;;;;;;;;;;;;;;19.00;100.00;100546.59;3048136;19;1008;-46
2022/07/30 04:21:22;;;;;;;;;;;;;;;18.99;100.00;100544.88;3049159;19;917;-48
2022/07/30 04:22:26;;;;;;;;;;;;;;;19.03;100.00;100546.28;3049056;19;1493;-49
2022/07/30 04:23:30;;;;;;;;;;;;;;;19.06;100.00;100535.19;3049465;19;971;-47
2022/07/30 04:24:52;;;;;;;;;;;;;;;19.12;100.00;100549.97;3054205;19;1088;-49
2022/07/30 04:25:57;;;;;;;;;;;;;;;19.14;100.00;100533.59;3054310;19;1027;-46
2022/07/30 04:26:59;;;;;;;;;;;;;;;19.19;100.00;100548.38;3054023;19;1850;-49
2022/07/30 04:28:05;;;;;;;;;;;;;;;19.12;100.00;100538.28;3054317;19;1101;-47
2022/07/30 04:29:07;;;;;;;;;;;;;;;19.19;100.00;100542.13;3054700;19;1102;-48
2022/07/30 04:30:17;;;;;;;;;;;;;;;19.22;100.00;100539.94;3054887;19;900;-49
2022/07/30 04:31:20;;;;;;;;;;;;;;;19.18;100.00;100532.31;3054795;19;1099;-48
2022/07/30 04:32:25;;;;;;;;;;;;;;;19.23;100.00;100544.38;3054301;19;1007;-49
2022/07/30 04:34:02;;;;;;;;;;;;;;;19.29;100.00;100538.38;3054519;19;1283;-47
2022/07/30 04:35:14;;;;;;;;;;;;;;;19.27;100.00;100544.94;3054440;19;1026;-47
2022/07/30 04:36:50;;;;;;;;;;;;;;;19.33;100.00;100553.28;3054717;19;982;-48
2022/07/30 04:37:52;;;;;;;;;;;;;;;19.39;100.00;100541.03;3054240;19;979;-48
2022/07/30 04:38:57;;;;;;;;;;;;;;;19.43;100.00;100545.16;3051412;19;1039;-46
2022/07/30 04:40:02;;;;;;;;;;;;;;;19.40;100.00;100537.31;3044139;19;985;-45
2022/07/30 04:41:04;;;;;;;;;;;;;;;19.41;100.00;100539.03;3045352;19;935;-46
2022/07/30 04:42:27;;;;;;;;;;;;;;;19.50;100.00;100540.00;3046634;19;1034;-48
2022/07/30 04:43:36;;;;;;;;;;;;;;;19.46;100.00;100539.41;3048822;19;884;-47
2022/07/30 04:44:41;;;;;;;;;;;;;;;19.41;100.00;100539.03;3048534;19;876;-45
2022/07/30 04:46:01;;;;;;;;;;;;;;;19.50;100.00;100534.59;3048883;19;988;-48
2022/07/30 04:47:05;;;;;;;;;;;;;;;19.52;100.00;100536.16;3053168;19;1846;-44
2022/07/30 04:48:11;;;;;;;;;;;;;;;19.57;100.00;100533.81;3054354;19;1698;-48
2022/07/30 04:49:19;;;;;;;;;;;;;;;19.56;100.00;100532.13;3054271;19;1026;-47
2022/07/30 04:50:22;;;;;;;;;;;;;;;19.62;100.00;100546.91;3054325;19;1039;-48
2022/07/30 04:51:37;;;;;;;;;;;;;;;19.61;100.00;100531.69;3053446;19;978;-46
2022/07/30 04:52:39;;;;;;;;;;;;;;;19.59;100.00;100542.66;3054483;19;1230;-46
2022/07/30 04:53:44;;;;;;;;;;;;;;;19.49;100.00;100536.44;3054621;19;1099;-47
2022/07/30 04:54:49;;;;;;;;;;;;;;;19.46;100.00;100531.28;3054515;19;1052;-45
2022/07/30 04:55:53;;;;;;;;;;;;;;;19.45;100.00;100540.41;3053769;19;1988;-45
2022/07/30 04:56:58;;;;;;;;;;;;;;;19.40;100.00;100542.75;3054528;19;1071;-46
2022/07/30 04:58:03;;;;;;;;;;;;;;;19.39;100.00;100530.19;3054172;19;965;-49
2022/07/30 04:59:11;;;;;;;;;;;;;;;19.41;100.00;100533.63;3054335;19;1336;-45
2022/07/30 05:00:13;;;;;;;;;;;;;;;19.42;100.00;100529.91;3053403;19;1064;-46
2022/07/30 05:01:18;;;;;;;;;;;;;;;19.38;100.00;100531.19;3052140;19;977;-46
2022/07/30 05:02:22;;;;;;;;;;;;;;;19.40;100.00;100537.31;3045312;19;1470;-47
2022/07/30 05:03:27;;;;;;;;;;;;;;;19.39;100.00;100533.75;3045965;19;856;-47
2022/07/30 05:04:31;;;;;;;;;;;;;;;19.44;100.00;100527.91;3045443;19;972;-46
2022/07/30 05:05:35;;;;;;;;;;;;;;;19.42;100.00;100530.75;3047973;19;1047;-46
2022/07/30 05:06:38;;;;;;;;;;;;;;;19.33;100.00;100520.81;3048008;19;977;-49
2022/07/30 05:07:43;;;;;;;;;;;;;;;19.45;100.00;100529.59;3048137;19;1843;-49
2022/07/30 05:08:44;;;;;;;;;;;;;;;19.46;100.00;100536.72;3050185;19;1046;-47
2022/07/30 05:09:49;;;;;;;;;;;;;;;19.50;100.00;100535.44;3053682;19;1199;-46
2022/07/30 05:10:51;;;;;;;;;;;;;;;19.50;100.00;100535.44;3053805;19;964;-45
2022/07/30 05:11:58;;;;;;;;;;;;;;;19.49;100.00;100536.44;3054282;19;933;-48
2022/07/30 05:13:00;;;;;;;;;;;;;;;19.53;100.00;100548.69;3053887;19;1067;-47
2022/07/30 05:14:05;;;;;;;;;;;;;;;19.56;100.00;100542.13;3054390;19;889;-46
2022/07/30 05:15:08;;;;;;;;;;;;;;;19.55;100.00;100535.84;3054259;19;1045;-48
2022/07/30 05:16:12;;;;;;;;;;;;;;;19.57;100.00;100543.81;3053696;19;1032;-46
2022/07/30 05:17:14;;;;;;;;;;;;;;;19.60;100.00;100543.50;3053925;19;1169;-48
2022/07/30 05:18:19;;;;;;;;;;;;;;;19.54;100.00;100522.47;3054253;19;1182;-49
2022/07/30 05:19:22;;;;;;;;;;;;;;;19.60;100.00;100533.53;3053295;19;1752;-45
2022/07/30 05:20:26;;;;;;;;;;;;;;;19.59;100.00;100534.53;3053787;19;1281;-48
2022/07/30 05:21:47;;;;;;;;;;;;;;;19.63;100.00;100533.25;3054350;19;1071;-46
2022/07/30 05:22:49;;;;;;;;;;;;;;;19.64;100.00;100529.53;3053890;19;1061;-47
2022/07/30 05:23:56;;;;;;;;;;;;;;;19.65;100.00;100530.38;3051113;19;1199;-46
2022/07/30 05:25:10;;;;;;;;;;;;;;;19.67;100.00;100529.25;3045116;19;893;-48
2022/07/30 05:26:21;;;;;;;;;;;;;;;19.67;100.00;100528.38;3044623;19;1559;-46
2022/07/30 05:27:29;;;;;;;;;;;;;;;19.69;100.00;100527.19;3045831;19;1893;-47
2022/07/30 05:28:34;;;;;;;;;;;;;;;19.72;100.00;100520.63;3047976;19;1386;-46
2022/07/30 05:29:43;;;;;;;;;;;;;;;19.73;100.00;100517.78;3047304;19;1178;-45
2022/07/30 05:30:49;;;;;;;;;;;;;;;19.77;100.00;100519.19;3048303;19;937;-47
2022/07/30 05:31:55;;;;;;;;;;;;;;;19.77;100.00;100519.19;3052833;19;1421;-47
2022/07/30 05:33:03;;;;;;;;;;;;;;;19.83;100.00;100523.13;3053461;19;858;-47
2022/07/30 05:34:19;;;;;;;;;;;;;;;19.85;100.00;100523.81;3053566;19;1004;-48
2022/07/30 05:35:21;;;;;;;;;;;;;;;19.88;100.00;100525.38;3053896;19;907;-48
2022/07/30 05:36:25;;;;;;;;;;;;;;;19.82;100.00;100523.28;3053314;19;1226;-48
2022/07/30 05:37:28;;;;;;;;;;;;;;;19.91;100.00;100519.66;3053645;19;1112;-48
2022/07/30 05:38:33;;;;;;;;;;;;;;;19.91;100.00;100531.34;3051529;19;1583;-48
2022/07/30 05:39:55;;;;;;;;;;;;;;;19.90;100.00;100528.78;3053626;19;1206;-46
2022/07/30 05:41:26;;;;;;;;;;;;;;;19.91;100.00;100531.34;3051532;19;1715;-48
2022/07/30 05:42:46;;;;;;;;;;;;;;;19.93;100.00;100528.47;3051381;19;1282;-48
2022/07/30 05:43:48;;;;;;;;;;;;;;;19.95;100.00;100526.47;3052660;19;1194;-48